Time;durP1;ratioP1;P1;durP2;ratioP2;P2;SDS_P1;SDS_P2;PMS_P1;PMS_P2;Temp;Humidity;BMP_temperature;BMP_pressure;BME280_temperature;BME280_humidity;BME280_pressure;Samples;Min_cycle;Max_cycle;Signal;HPM_P1;HPM_P2
2023/05/01 00:00:58;;;;;;;;;;;;;;;;;;5049090;28;19928;-56
2023/05/01 00:03:24;;;;;;;;;;;;;;;;;;5049391;28;19924;-56
2023/05/01 00:05:50;;;;;;;;;;;;;;;;;;5048635;28;20341;-56
2023/05/01 00:08:16;;;;;;;;;;;;;;;;;;5049254;28;19928;-57
2023/05/01 00:10:42;;;;;;;;;;;;;;;;;;5049145;28;19931;-57
2023/05/01 00:13:08;;;;;;;;;;;;;;;;;;5052507;28;19970;-57
2023/05/01 00:15:35;;;;;;;;;;;;;;;;;;5052814;28;19978;-57
2023/05/01 00:18:01;;;;;;;;;;;;;;;;;;5052994;28;19921;-57
2023/05/01 00:20:27;;;;;;;;;;;;;;;;;;5052301;28;20295;-57
2023/05/01 00:22:53;;;;;;;;;;;;;;;;;;5052520;28;20392;-57
2023/05/01 00:25:19;;;;;;;;;;;;;;;;;;5052735;28;19932;-57
2023/05/01 00:27:45;;;;;;;;;;;;;;;;;;5051955;28;19925;-57
2023/05/01 00:30:11;;;;;;;;;;;;;;;;;;5052665;28;20287;-57
2023/05/01 00:32:37;;;;;;;;;;;;;;;;;;5052846;28;19990;-57
2023/05/01 00:35:03;;;;;;;;;;;;;;;;;;5050598;28;20320;-57
2023/05/01 00:37:31;;;;;;;;;;;;;;;;;;5052754;28;19928;-56
2023/05/01 00:39:57;;;;;;;;;;;;;;;;;;5052986;28;19932;-56
2023/05/01 00:42:23;;;;;;;;;;;;;;;;;;5051722;28;20591;-56
2023/05/01 00:44:49;;;;;;;;;;;;;;;;;;5052745;28;19928;-55
2023/05/01 00:47:15;;;;;;;;;;;;;;;;;;5052423;28;20337;-57
2023/05/01 00:49:41;;;;;;;;;;;;;;;;;;5051374;28;19925;-57
2023/05/01 00:52:08;;;;;;;;;;;;;;;;;;5052237;28;19974;-56
2023/05/01 00:54:34;;;;;;;;;;;;;;;;;;5052199;28;20027;-57
2023/05/01 00:57:00;;;;;;;;;;;;;;;;;;5051492;28;20071;-56
2023/05/01 00:59:26;;;;;;;;;;;;;;;;;;5050596;28;19928;-55
2023/05/01 01:01:52;;;;;;;;;;;;;;;;;;5050879;28;19929;-57
2023/05/01 01:04:18;;;;;;;;;;;;;;;;;;5051756;28;20196;-57
2023/05/01 01:06:44;;;;;;;;;;;;;;;;;;5052250;28;19924;-57
2023/05/01 01:09:10;;;;;;;;;;;;;;;;;;5051860;28;19925;-57
2023/05/01 01:11:36;;;;;;;;;;;;;;;;;;5050979;28;19968;-58
2023/05/01 01:14:02;;;;;;;;;;;;;;;;;;5051493;28;19928;-57
2023/05/01 01:16:28;;;;;;;;;;;;;;;;;;5051605;28;20345;-58
2023/05/01 01:18:54;;;;;;;;;;;;;;;;;;5051430;28;19925;-57
2023/05/01 01:21:20;;;;;;;;;;;;;;;;;;5051262;28;19959;-58
2023/05/01 01:23:46;;;;;;;;;;;;;;;;;;5051353;28;19964;-56
2023/05/01 01:26:12;;;;;;;;;;;;;;;;;;5050975;28;19968;-57
2023/05/01 01:28:38;;;;;;;;;;;;;;;;;;5051165;28;20385;-57
2023/05/01 01:31:04;;;;;;;;;;;;;;;;;;5049968;28;19947;-58
2023/05/01 01:33:30;;;;;;;;;;;;;;;;;;5051120;28;19994;-57
2023/05/01 01:35:56;;;;;;;;;;;;;;;;;;5051412;28;19929;-57
2023/05/01 01:38:22;;;;;;;;;;;;;;;;;;5051304;28;19925;-54
2023/05/01 01:40:48;;;;;;;;;;;;;;;;;;5049450;28;20165;-56
2023/05/01 01:43:14;;;;;;;;;;;;;;;;;;5051435;28;19964;-57
2023/05/01 01:45:40;;;;;;;;;;;;;;;;;;5051110;28;19975;-58
2023/05/01 01:48:06;;;;;;;;;;;;;;;;;;5051034;28;20272;-58
2023/05/01 01:50:32;;;;;;;;;;;;;;;;;;5051318;28;19928;-57
2023/05/01 01:52:58;;;;;;;;;;;;;;;;;;5051203;28;19946;-57
2023/05/01 01:55:24;;;;;;;;;;;;;;;;;;5050550;28;19937;-57
2023/05/01 01:57:50;;;;;;;;;;;;;;;;;;5050913;28;19924;-55
2023/05/01 02:00:16;;;;;;;;;;;;;;;;;;5050975;28;19921;-55
2023/05/01 02:02:41;;;;;;;;;;;;;;;;;;5050309;28;20242;-56
2023/05/01 02:05:07;;;;;;;;;;;;;;;;;;5051072;28;19931;-55
2023/05/01 02:07:33;;;;;;;;;;;;;;;;;;5051051;28;19924;-57
2023/05/01 02:10:00;;;;;;;;;;;;;;;;;;5050376;28;19932;-57
2023/05/01 02:12:25;;;;;;;;;;;;;;;;;;5050497;28;19921;-57
2023/05/01 02:14:51;;;;;;;;;;;;;;;;;;5050711;28;19932;-57
2023/05/01 02:17:18;;;;;;;;;;;;;;;;;;5050132;28;19986;-57
2023/05/01 02:19:44;;;;;;;;;;;;;;;;;;5049076;28;19925;-57
2023/05/01 02:22:10;;;;;;;;;;;;;;;;;;5048765;28;20463;-57
2023/05/01 02:24:37;;;;;;;;;;;;;;;;;;5049947;28;20203;-57
2023/05/01 02:27:03;;;;;;;;;;;;;;;;;;5050043;28;19974;-57
2023/05/01 02:29:29;;;;;;;;;;;;;;;;;;5050491;28;19948;-56
2023/05/01 02:31:55;;;;;;;;;;;;;;;;;;5050367;28;20362;-52
2023/05/01 02:34:21;;;;;;;;;;;;;;;;;;5047408;28;19929;-55
2023/05/01 02:36:47;;;;;;;;;;;;;;;;;;5049137;28;19925;-56
2023/05/01 02:39:13;;;;;;;;;;;;;;;;;;5049011;28;19999;-56
2023/05/01 02:41:39;;;;;;;;;;;;;;;;;;5049675;28;19920;-54
2023/05/01 02:44:05;;;;;;;;;;;;;;;;;;5050636;28;19921;-57
2023/05/01 02:46:31;;;;;;;;;;;;;;;;;;5050195;28;20027;-56
2023/05/01 02:48:57;;;;;;;;;;;;;;;;;;5049350;28;20051;-57
2023/05/01 02:51:23;;;;;;;;;;;;;;;;;;5049863;28;19924;-57
2023/05/01 02:53:49;;;;;;;;;;;;;;;;;;5049986;28;19924;-56
2023/05/01 02:56:15;;;;;;;;;;;;;;;;;;5049309;28;20363;-56
2023/05/01 02:58:41;;;;;;;;;;;;;;;;;;5049637;28;19931;-56
2023/05/01 03:01:07;;;;;;;;;;;;;;;;;;5049913;28;19925;-56
2023/05/01 03:03:32;;;;;;;;;;;;;;;;;;5049732;28;19975;-57
2023/05/01 03:05:59;;;;;;;;;;;;;;;;;;5050003;28;20363;-56
2023/05/01 03:08:25;;;;;;;;;;;;;;;;;;5049830;28;19921;-58
2023/05/01 03:10:51;;;;;;;;;;;;;;;;;;5047702;28;20382;-58
2023/05/01 03:13:17;;;;;;;;;;;;;;;;;;5049485;28;19924;-56
2023/05/01 03:15:43;;;;;;;;;;;;;;;;;;5049851;28;19932;-57
2023/05/01 03:18:08;;;;;;;;;;;;;;;;;;5049318;28;20000;-58
2023/05/01 03:20:34;;;;;;;;;;;;;;;;;;5049860;28;20091;-58
2023/05/01 03:23:01;;;;;;;;;;;;;;;;;;5049032;28;20311;-58
2023/05/01 03:25:27;;;;;;;;;;;;;;;;;;5048938;28;19929;-57
2023/05/01 03:27:52;;;;;;;;;;;;;;;;;;5049445;28;20276;-57
2023/05/01 03:30:18;;;;;;;;;;;;;;;;;;5049583;28;19946;-57
2023/05/01 03:32:44;;;;;;;;;;;;;;;;;;5048998;28;20197;-56
2023/05/01 03:35:11;;;;;;;;;;;;;;;;;;5049210;28;19932;-57
2023/05/01 03:37:37;;;;;;;;;;;;;;;;;;5049472;28;19944;-56
2023/05/01 03:40:03;;;;;;;;;;;;;;;;;;5047734;28;19921;-55
2023/05/01 03:42:29;;;;;;;;;;;;;;;;;;5047845;28;20382;-57
2023/05/01 03:44:54;;;;;;;;;;;;;;;;;;5050225;28;19990;-56
2023/05/01 03:47:20;;;;;;;;;;;;;;;;;;5053160;28;19921;-57
2023/05/01 03:49:46;;;;;;;;;;;;;;;;;;5053399;28;19920;-57
2023/05/01 03:52:13;;;;;;;;;;;;;;;;;;5053430;28;20019;-56
2023/05/01 03:54:39;;;;;;;;;;;;;;;;;;5052738;28;20084;-56
2023/05/01 03:57:05;;;;;;;;;;;;;;;;;;5053384;28;20031;-55
2023/05/01 03:59:31;;;;;;;;;;;;;;;;;;5053260;28;19979;-56
2023/05/01 04:01:57;;;;;;;;;;;;;;;;;;5052537;28;20355;-57
2023/05/01 04:04:23;;;;;;;;;;;;;;;;;;5053242;28;19954;-57
2023/05/01 04:06:48;;;;;;;;;;;;;;;;;;5053252;28;19924;-57
2023/05/01 04:09:15;;;;;;;;;;;;;;;;;;5052965;28;19925;-55
2023/05/01 04:11:40;;;;;;;;;;;;;;;;;;5051840;28;20252;-56
2023/05/01 04:14:06;;;;;;;;;;;;;;;;;;5053124;28;20125;-57
2023/05/01 04:16:32;;;;;;;;;;;;;;;;;;5052592;28;19921;-57
2023/05/01 04:18:58;;;;;;;;;;;;;;;;;;5052902;28;20406;-58
2023/05/01 04:21:25;;;;;;;;;;;;;;;;;;5052868;28;20020;-58
2023/05/01 04:23:51;;;;;;;;;;;;;;;;;;5051903;28;19936;-57
2023/05/01 04:26:17;;;;;;;;;;;;;;;;;;5052792;28;19928;-58
2023/05/01 04:28:43;;;;;;;;;;;;;;;;;;5052810;28;19925;-57
2023/05/01 04:31:09;;;;;;;;;;;;;;;;;;5052383;28;19921;-56
2023/05/01 04:33:35;;;;;;;;;;;;;;;;;;5052923;28;19974;-56
2023/05/01 04:36:01;;;;;;;;;;;;;;;;;;5051195;28;19931;-54
2023/05/01 04:38:29;;;;;;;;;;;;;;;;;;5052074;28;19929;-56
2023/05/01 04:40:55;;;;;;;;;;;;;;;;;;5051032;28;19963;-57
2023/05/01 04:43:21;;;;;;;;;;;;;;;;;;5051054;28;19928;-58
2023/05/01 04:45:49;;;;;;;;;;;;;;;;;;5052176;28;19925;-57
2023/05/01 04:48:15;;;;;;;;;;;;;;;;;;5052391;28;20389;-57
2023/05/01 04:50:41;;;;;;;;;;;;;;;;;;5052303;28;19921;-57
2023/05/01 04:53:07;;;;;;;;;;;;;;;;;;5051883;28;20290;-55
2023/05/01 04:55:33;;;;;;;;;;;;;;;;;;5052213;28;20329;-56
2023/05/01 04:57:59;;;;;;;;;;;;;;;;;;5051540;28;20204;-56
2023/05/01 05:00:26;;;;;;;;;;;;;;;;;;5051793;28;19936;-58
2023/05/01 05:02:52;;;;;;;;;;;;;;;;;;5052146;28;19953;-58
2023/05/01 05:05:18;;;;;;;;;;;;;;;;;;5050650;28;19924;-56
2023/05/01 05:07:44;;;;;;;;;;;;;;;;;;5051705;28;19925;-58
2023/05/01 05:10:10;;;;;;;;;;;;;;;;;;5052129;28;20019;-55
2023/05/01 05:12:36;;;;;;;;;;;;;;;;;;5052325;28;20012;-57
2023/05/01 05:15:02;;;;;;;;;;;;;;;;;;5051338;28;20291;-57
2023/05/01 05:17:28;;;;;;;;;;;;;;;;;;5052001;28;20228;-56
2023/05/01 05:19:54;;;;;;;;;;;;;;;;;;5051786;28;19966;-58
2023/05/01 05:22:20;;;;;;;;;;;;;;;;;;5050948;28;20394;-55
2023/05/01 05:24:45;;;;;;;;;;;;;;;;;;5051325;28;20100;-57
2023/05/01 05:27:11;;;;;;;;;;;;;;;;;;5051586;28;19929;-57
2023/05/01 05:29:37;;;;;;;;;;;;;;;;;;5051380;28;19932;-57
2023/05/01 05:32:05;;;;;;;;;;;;;;;;;;5051492;28;19972;-57
2023/05/01 05:34:30;;;;;;;;;;;;;;;;;;5051482;28;19933;-58
2023/05/01 05:36:56;;;;;;;;;;;;;;;;;;5051309;28;20268;-58
2023/05/01 05:39:22;;;;;;;;;;;;;;;;;;5050621;28;19932;-58
2023/05/01 05:41:52;;;;;;;;;;;;;;;;;;5051311;28;20023;-58
2023/05/01 05:44:18;;;;;;;;;;;;;;;;;;5051375;28;19925;-58
2023/05/01 05:46:44;;;;;;;;;;;;;;;;;;5049450;28;19920;-58
2023/05/01 05:49:10;;;;;;;;;;;;;;;;;;5051106;28;20066;-57
2023/05/01 05:51:36;;;;;;;;;;;;;;;;;;5051097;28;19924;-57
2023/05/01 05:54:02;;;;;;;;;;;;;;;;;;5050319;28;20425;-56
2023/05/01 05:56:28;;;;;;;;;;;;;;;;;;5051453;28;20010;-56
2023/05/01 05:58:54;;;;;;;;;;;;;;;;;;5051047;28;20084;-53
2023/05/01 06:01:20;;;;;;;;;;;;;;;;;;5050671;28;19924;-57
2023/05/01 06:03:46;;;;;;;;;;;;;;;;;;5051148;28;19921;-56
2023/05/01 06:06:12;;;;;;;;;;;;;;;;;;5051018;28;20287;-57
2023/05/01 06:08:38;;;;;;;;;;;;;;;;;;5050278;28;19929;-55
2023/05/01 06:11:04;;;;;;;;;;;;;;;;;;5050809;28;19921;-56
2023/05/01 06:13:31;;;;;;;;;;;;;;;;;;5050635;28;19932;-57
2023/05/01 06:15:57;;;;;;;;;;;;;;;;;;5048846;28;19928;-57
2023/05/01 06:18:23;;;;;;;;;;;;;;;;;;5050766;28;19924;-57
2023/05/01 06:20:50;;;;;;;;;;;;;;;;;;5049062;28;20310;-57
2023/05/01 06:23:17;;;;;;;;;;;;;;;;;;5048791;28;19925;-57
2023/05/01 06:25:43;;;;;;;;;;;;;;;;;;5050419;28;20306;-56
2023/05/01 06:28:09;;;;;;;;;;;;;;;;;;5050516;28;19924;-58
2023/05/01 06:30:35;;;;;;;;;;;;;;;;;;5049979;28;19924;-56
2023/05/01 06:33:04;;;;;;;;;;;;;;;;;;5048653;28;20379;-57
2023/05/01 06:35:30;;;;;;;;;;;;;;;;;;5050114;28;19929;-57
2023/05/01 06:37:56;;;;;;;;;;;;;;;;;;5049291;28;19971;-56
2023/05/01 06:40:22;;;;;;;;;;;;;;;;;;5049954;28;19921;-57
2023/05/01 06:42:48;;;;;;;;;;;;;;;;;;5049940;28;20445;-57
2023/05/01 06:45:14;;;;;;;;;;;;;;;;;;5049615;28;19932;-55
2023/05/01 06:47:40;;;;;;;;;;;;;;;;;;5050276;28;19925;-58
2023/05/01 06:50:06;;;;;;;;;;;;;;;;;;5049707;28;19974;-58
2023/05/01 06:52:32;;;;;;;;;;;;;;;;;;5049094;28;20003;-58
2023/05/01 06:54:58;;;;;;;;;;;;;;;;;;5048878;28;20323;-56
2023/05/01 06:57:24;;;;;;;;;;;;;;;;;;5049876;28;19959;-57
2023/05/01 06:59:50;;;;;;;;;;;;;;;;;;5040423;28;19925;-56
2023/05/01 07:02:16;;;;;;;;;;;;;;;;;;5050088;28;20003;-56
2023/05/01 07:04:43;;;;;;;;;;;;;;;;;;5049519;28;19928;-58
2023/05/01 07:07:09;;;;;;;;;;;;;;;;;;5047769;28;20347;-56
2023/05/01 07:09:35;;;;;;;;;;;;;;;;;;5033918;28;19950;-58
2023/05/01 07:12:02;;;;;;;;;;;;;;;;;;5037915;28;19925;-54
2023/05/01 07:14:27;;;;;;;;;;;;;;;;;;5048504;28;19940;-57
2023/05/01 07:16:54;;;;;;;;;;;;;;;;;;5076238;28;19921;-56
2023/05/01 07:19:20;;;;;;;;;;;;;;;;;;5043859;28;19929;-58
2023/05/01 07:21:46;;;;;;;;;;;;;;;;;;5047524;28;19929;-58
2023/05/01 07:24:12;;;;;;;;;;;;;;;;;;5048989;28;19924;-56
2023/05/01 07:26:38;;;;;;;;;;;;;;;;;;5049484;28;20616;-56
2023/05/01 07:29:04;;;;;;;;;;;;;;;;;;5080921;28;20334;-57
2023/05/01 07:31:30;;;;;;;;;;;;;;;;;;5049490;28;19921;-58
2023/05/01 07:33:56;;;;;;;;;;;;;;;;;;5048747;28;19925;-56
2023/05/01 07:36:22;;;;;;;;;;;;;;;;;;5048411;28;19933;-58
2023/05/01 07:38:48;;;;;;;;;;;;;;;;;;5049737;28;19931;-58
2023/05/01 07:41:14;;;;;;;;;;;;;;;;;;5049219;28;19929;-56
2023/05/01 07:43:40;;;;;;;;;;;;;;;;;;5049026;28;19921;-57
2023/05/01 07:46:06;;;;;;;;;;;;;;;;;;5049540;28;20000;-58
2023/05/01 07:48:32;;;;;;;;;;;;;;;;;;5049308;28;19920;-58
2023/05/01 07:50:58;;;;;;;;;;;;;;;;;;5046106;28;19921;-58
2023/05/01 07:53:24;;;;;;;;;;;;;;;;;;5048976;28;19925;-59
2023/05/01 07:55:50;;;;;;;;;;;;;;;;;;5049615;28;19936;-57
2023/05/01 07:58:16;;;;;;;;;;;;;;;;;;5048679;28;19931;-55
2023/05/01 08:00:44;;;;;;;;;;;;;;;;;;5045751;28;19924;-57
2023/05/01 08:03:10;;;;;;;;;;;;;;;;;;5049506;28;19955;-57
2023/05/01 08:05:36;;;;;;;;;;;;;;;;;;5048404;28;20038;-57
2023/05/01 08:08:02;;;;;;;;;;;;;;;;;;5048952;28;20414;-57
2023/05/01 08:10:28;;;;;;;;;;;;;;;;;;5048823;28;19944;-57
2023/05/01 08:12:54;;;;;;;;;;;;;;;;;;5048260;28;20043;-57
2023/05/01 08:15:20;;;;;;;;;;;;;;;;;;5049617;28;20001;-57
2023/05/01 08:17:46;;;;;;;;;;;;;;;;;;5049027;28;20008;-58
2023/05/01 08:20:12;;;;;;;;;;;;;;;;;;5046653;28;19925;-59
2023/05/01 08:22:38;;;;;;;;;;;;;;;;;;5057981;28;20405;-60
2023/05/01 08:25:04;;;;;;;;;;;;;;;;;;5049127;28;19929;-60
2023/05/01 08:27:30;;;;;;;;;;;;;;;;;;5048969;28;19920;-59
2023/05/01 08:29:56;;;;;;;;;;;;;;;;;;5054246;28;19950;-60
2023/05/01 08:32:22;;;;;;;;;;;;;;;;;;5033308;28;19928;-61
2023/05/01 08:34:48;;;;;;;;;;;;;;;;;;5050263;28;19937;-60
2023/05/01 08:37:14;;;;;;;;;;;;;;;;;;5053830;28;20066;-58
2023/05/01 08:39:40;;;;;;;;;;;;;;;;;;5054199;28;19921;-59
2023/05/01 08:42:06;;;;;;;;;;;;;;;;;;5052235;28;19975;-61
2023/05/01 08:44:32;;;;;;;;;;;;;;;;;;5044238;28;19940;-61
2023/05/01 08:46:58;;;;;;;;;;;;;;;;;;5046636;28;20026;-60
2023/05/01 08:49:24;;;;;;;;;;;;;;;;;;5049705;28;20011;-62
2023/05/01 08:51:51;;;;;;;;;;;;;;;;;;5051707;28;20028;-62
2023/05/01 08:54:17;;;;;;;;;;;;;;;;;;5050409;28;20025;-61
2023/05/01 08:56:43;;;;;;;;;;;;;;;;;;5051468;28;19964;-61
2023/05/01 08:59:09;;;;;;;;;;;;;;;;;;5049980;28;20023;-60
2023/05/01 09:01:35;;;;;;;;;;;;;;;;;;5049952;28;19943;-59
2023/05/01 09:04:01;;;;;;;;;;;;;;;;;;5053941;28;19995;-59
2023/05/01 09:06:27;;;;;;;;;;;;;;;;;;5050819;28;19977;-60
2023/05/01 09:08:53;;;;;;;;;;;;;;;;;;5050829;28;19975;-60
2023/05/01 09:11:19;;;;;;;;;;;;;;;;;;5049837;28;19921;-61
2023/05/01 09:13:45;;;;;;;;;;;;;;;;;;5049822;28;20283;-60
2023/05/01 09:16:11;;;;;;;;;;;;;;;;;;5051267;28;19972;-59
2023/05/01 09:18:38;;;;;;;;;;;;;;;;;;5051315;28;19978;-60
2023/05/01 09:21:04;;;;;;;;;;;;;;;;;;5049503;28;19931;-61
2023/05/01 09:23:31;;;;;;;;;;;;;;;;;;5051230;28;20279;-61
2023/05/01 09:25:57;;;;;;;;;;;;;;;;;;5051268;28;19970;-61
2023/05/01 09:28:23;;;;;;;;;;;;;;;;;;5049845;28;20280;-58
2023/05/01 09:30:50;;;;;;;;;;;;;;;;;;5048960;28;19978;-60
2023/05/01 09:33:16;;;;;;;;;;;;;;;;;;5049239;28;19929;-59
2023/05/01 09:35:41;;;;;;;;;;;;;;;;;;5050543;28;19928;-60
2023/05/01 09:38:08;;;;;;;;;;;;;;;;;;5053515;28;20409;-58
2023/05/01 09:40:34;;;;;;;;;;;;;;;;;;5050887;28;20533;-60
2023/05/01 09:43:01;;;;;;;;;;;;;;;;;;5049265;28;20513;-61
2023/05/01 09:45:27;;;;;;;;;;;;;;;;;;5051689;28;19924;-58
2023/05/01 09:47:53;;;;;;;;;;;;;;;;;;5049639;28;19925;-59
2023/05/01 09:50:19;;;;;;;;;;;;;;;;;;5048628;28;20677;-59
2023/05/01 09:52:45;;;;;;;;;;;;;;;;;;5049599;28;19921;-62
2023/05/01 09:55:12;;;;;;;;;;;;;;;;;;5050765;28;19935;-61
2023/05/01 09:57:38;;;;;;;;;;;;;;;;;;5051605;28;19924;-61
2023/05/01 10:00:08;;;;;;;;;;;;;;;;;;5051282;28;19927;-62
2023/05/01 10:02:35;;;;;;;;;;;;;;;;;;5049595;28;19921;-62
2023/05/01 10:05:01;;;;;;;;;;;;;;;;;;5050833;28;20004;-60
2023/05/01 10:07:27;;;;;;;;;;;;;;;;;;5050950;28;20522;-61
2023/05/01 10:09:54;;;;;;;;;;;;;;;;;;5050702;28;19928;-61
2023/05/01 10:12:20;;;;;;;;;;;;;;;;;;5049433;28;19956;-62
2023/05/01 10:14:46;;;;;;;;;;;;;;;;;;5049884;28;19991;-62
2023/05/01 10:17:12;;;;;;;;;;;;;;;;;;5050272;28;19929;-61
2023/05/01 10:19:38;;;;;;;;;;;;;;;;;;5049864;28;19990;-59
2023/05/01 10:22:04;;;;;;;;;;;;;;;;;;5050651;28;19925;-61
2023/05/01 10:24:30;;;;;;;;;;;;;;;;;;5050801;28;20016;-60
2023/05/01 10:26:57;;;;;;;;;;;;;;;;;;5049187;28;19928;-61
2023/05/01 10:29:23;;;;;;;;;;;;;;;;;;5050447;28;20252;-61
2023/05/01 10:31:49;;;;;;;;;;;;;;;;;;5045615;28;19924;-60
2023/05/01 10:34:15;;;;;;;;;;;;;;;;;;5045304;28;20012;-60
2023/05/01 10:36:41;;;;;;;;;;;;;;;;;;5047789;28;19928;-61
2023/05/01 10:39:10;;;;;;;;;;;;;;;;;;5054109;28;20293;-60
2023/05/01 10:41:36;;;;;;;;;;;;;;;;;;5049537;28;20011;-61
2023/05/01 10:44:02;;;;;;;;;;;;;;;;;;5050464;28;19974;-61
2023/05/01 10:46:28;;;;;;;;;;;;;;;;;;5046086;28;20011;-62
2023/05/01 10:48:54;;;;;;;;;;;;;;;;;;5048176;28;19929;-60
2023/05/01 10:51:20;;;;;;;;;;;;;;;;;;5049685;28;20391;-62
2023/05/01 10:53:46;;;;;;;;;;;;;;;;;;5049767;28;20330;-62
2023/05/01 10:56:13;;;;;;;;;;;;;;;;;;5054886;28;19935;-62
2023/05/01 10:58:39;;;;;;;;;;;;;;;;;;5058151;28;20380;-61
2023/05/01 11:01:05;;;;;;;;;;;;;;;;;;5043601;28;19932;-60
2023/05/01 11:03:31;;;;;;;;;;;;;;;;;;5046785;28;19952;-62
2023/05/01 11:05:57;;;;;;;;;;;;;;;;;;5047113;28;19925;-61
2023/05/01 11:08:23;;;;;;;;;;;;;;;;;;5049083;28;20011;-60
2023/05/01 11:10:48;;;;;;;;;;;;;;;;;;5051025;28;20047;-60
2023/05/01 11:13:14;;;;;;;;;;;;;;;;;;5048864;28;19927;-60
2023/05/01 11:15:40;;;;;;;;;;;;;;;;;;5047182;28;19974;-61
2023/05/01 11:18:06;;;;;;;;;;;;;;;;;;5051047;28;19927;-61
2023/05/01 11:20:33;;;;;;;;;;;;;;;;;;5049977;28;19925;-61
2023/05/01 11:22:59;;;;;;;;;;;;;;;;;;5049868;28;19990;-60
2023/05/01 11:25:29;;;;;;;;;;;;;;;;;;5049225;28;20484;-61
2023/05/01 11:27:57;;;;;;;;;;;;;;;;;;5049030;28;21457;-61
2023/05/01 11:30:23;;;;;;;;;;;;;;;;;;5048374;28;19967;-61
2023/05/01 11:32:49;;;;;;;;;;;;;;;;;;5031851;28;20644;-61
2023/05/01 11:35:15;;;;;;;;;;;;;;;;;;5048189;28;19948;-61
2023/05/01 11:37:41;;;;;;;;;;;;;;;;;;5049592;28;19924;-61
2023/05/01 11:40:07;;;;;;;;;;;;;;;;;;5049451;28;19939;-61
2023/05/01 11:42:33;;;;;;;;;;;;;;;;;;5049384;28;19975;-61
2023/05/01 11:44:59;;;;;;;;;;;;;;;;;;5050065;28;20035;-61
2023/05/01 11:47:25;;;;;;;;;;;;;;;;;;5052234;28;19982;-62
2023/05/01 11:49:51;;;;;;;;;;;;;;;;;;5045641;28;20533;-60
2023/05/01 11:52:17;;;;;;;;;;;;;;;;;;5046240;28;19943;-61
2023/05/01 11:54:43;;;;;;;;;;;;;;;;;;5047739;28;19929;-61
2023/05/01 11:57:09;;;;;;;;;;;;;;;;;;5050010;28;19921;-61
2023/05/01 11:59:35;;;;;;;;;;;;;;;;;;5048034;28;19920;-61
2023/05/01 12:02:01;;;;;;;;;;;;;;;;;;5050270;28;19921;-62
2023/05/01 12:04:27;;;;;;;;;;;;;;;;;;5049827;28;19929;-61
2023/05/01 12:06:53;;;;;;;;;;;;;;;;;;5051269;28;20283;-61
2023/05/01 12:09:19;;;;;;;;;;;;;;;;;;5051920;28;19924;-60
2023/05/01 12:11:45;;;;;;;;;;;;;;;;;;5051396;28;19931;-60
2023/05/01 12:14:11;;;;;;;;;;;;;;;;;;5048487;28;19971;-61
2023/05/01 12:16:39;;;;;;;;;;;;;;;;;;5050612;28;19964;-60
2023/05/01 12:19:05;;;;;;;;;;;;;;;;;;5043952;28;19935;-62
2023/05/01 12:21:31;;;;;;;;;;;;;;;;;;5049778;28;19943;-62
2023/05/01 12:23:58;;;;;;;;;;;;;;;;;;5048516;28;20011;-62
2023/05/01 12:26:24;;;;;;;;;;;;;;;;;;5052531;28;20264;-62
2023/05/01 12:28:50;;;;;;;;;;;;;;;;;;5052048;28;19925;-62
2023/05/01 12:31:16;;;;;;;;;;;;;;;;;;5055159;28;19925;-62
2023/05/01 12:33:42;;;;;;;;;;;;;;;;;;5050727;28;20001;-61
2023/05/01 12:36:09;;;;;;;;;;;;;;;;;;5052537;28;19933;-63
2023/05/01 12:38:35;;;;;;;;;;;;;;;;;;5052339;28;20256;-60
2023/05/01 12:41:05;;;;;;;;;;;;;;;;;;5052216;28;19928;-60
2023/05/01 12:43:31;;;;;;;;;;;;;;;;;;5049575;28;19928;-58
2023/05/01 12:45:57;;;;;;;;;;;;;;;;;;5048952;28;19981;-60
2023/05/01 12:48:23;;;;;;;;;;;;;;;;;;5050605;28;19928;-61
2023/05/01 12:50:55;;;;;;;;;;;;;;;;;;5052116;28;19924;-61
2023/05/01 12:53:22;;;;;;;;;;;;;;;;;;5049608;28;20015;-62
2023/05/01 12:55:48;;;;;;;;;;;;;;;;;;5041696;28;20433;-61
2023/05/01 12:58:14;;;;;;;;;;;;;;;;;;5050586;28;19925;-61
2023/05/01 13:00:40;;;;;;;;;;;;;;;;;;5052601;28;19931;-60
2023/05/01 13:03:06;;;;;;;;;;;;;;;;;;5048308;28;19921;-61
2023/05/01 13:05:32;;;;;;;;;;;;;;;;;;5049608;28;19928;-60
2023/05/01 13:07:58;;;;;;;;;;;;;;;;;;5051624;28;19929;-60
2023/05/01 13:10:24;;;;;;;;;;;;;;;;;;5052099;28;19921;-60
2023/05/01 13:12:50;;;;;;;;;;;;;;;;;;5059202;28;19924;-61
2023/05/01 13:15:16;;;;;;;;;;;;;;;;;;5059543;28;20386;-60
2023/05/01 13:17:42;;;;;;;;;;;;;;;;;;5050507;28;19920;-61
2023/05/01 13:20:08;;;;;;;;;;;;;;;;;;5052736;28;19929;-62
2023/05/01 13:22:34;;;;;;;;;;;;;;;;;;5052603;28;19925;-62
2023/05/01 13:25:01;;;;;;;;;;;;;;;;;;5051611;28;20035;-62
2023/05/01 13:27:27;;;;;;;;;;;;;;;;;;5052678;28;19932;-62
2023/05/01 13:29:54;;;;;;;;;;;;;;;;;;5050835;28;20075;-62
2023/05/01 13:32:20;;;;;;;;;;;;;;;;;;5052063;28;19924;-62
2023/05/01 13:34:46;;;;;;;;;;;;;;;;;;5052193;28;19951;-62
2023/05/01 13:37:12;;;;;;;;;;;;;;;;;;5050525;28;19931;-62
2023/05/01 13:39:38;;;;;;;;;;;;;;;;;;5051238;28;19936;-62
2023/05/01 13:42:05;;;;;;;;;;;;;;;;;;5051947;28;19921;-61
2023/05/01 13:44:31;;;;;;;;;;;;;;;;;;5051700;28;19971;-62
2023/05/01 13:46:57;;;;;;;;;;;;;;;;;;5051533;28;19929;-62
2023/05/01 13:49:23;;;;;;;;;;;;;;;;;;5051919;28;20433;-59
2023/05/01 13:51:49;;;;;;;;;;;;;;;;;;5051757;28;19924;-60
2023/05/01 13:54:15;;;;;;;;;;;;;;;;;;5051249;28;20502;-60
2023/05/01 13:56:41;;;;;;;;;;;;;;;;;;5051822;28;19959;-60
2023/05/01 13:59:07;;;;;;;;;;;;;;;;;;5051929;28;19963;-61
2023/05/01 14:01:34;;;;;;;;;;;;;;;;;;5051388;28;19932;-61
2023/05/01 14:03:59;;;;;;;;;;;;;;;;;;5051609;28;19931;-61
2023/05/01 14:06:27;;;;;;;;;;;;;;;;;;5051790;28;20015;-61
2023/05/01 14:08:53;;;;;;;;;;;;;;;;;;5051315;28;19925;-61
2023/05/01 14:11:19;;;;;;;;;;;;;;;;;;5051834;28;19924;-61
2023/05/01 14:13:45;;;;;;;;;;;;;;;;;;5051786;28;20023;-61
2023/05/01 14:16:11;;;;;;;;;;;;;;;;;;5050943;28;19975;-61
2023/05/01 14:18:37;;;;;;;;;;;;;;;;;;5051504;28;19931;-61
2023/05/01 14:21:03;;;;;;;;;;;;;;;;;;5051441;28;20282;-61
2023/05/01 14:23:29;;;;;;;;;;;;;;;;;;5050891;28;19925;-61
2023/05/01 14:25:55;;;;;;;;;;;;;;;;;;5051193;28;20550;-60
2023/05/01 14:28:22;;;;;;;;;;;;;;;;;;5051703;28;19921;-61
2023/05/01 14:30:49;;;;;;;;;;;;;;;;;;5048622;28;20367;-60
2023/05/01 14:33:15;;;;;;;;;;;;;;;;;;5051697;28;20335;-59
2023/05/01 14:35:42;;;;;;;;;;;;;;;;;;5051239;28;20024;-61
2023/05/01 14:38:08;;;;;;;;;;;;;;;;;;5050916;28;19929;-61
2023/05/01 14:40:34;;;;;;;;;;;;;;;;;;5051270;28;19924;-61
2023/05/01 14:43:00;;;;;;;;;;;;;;;;;;5050865;28;20015;-60
2023/05/01 14:45:26;;;;;;;;;;;;;;;;;;5050348;28;19928;-59
2023/05/01 14:47:52;;;;;;;;;;;;;;;;;;5051156;28;19924;-58
2023/05/01 14:50:18;;;;;;;;;;;;;;;;;;5050862;28;19932;-56
2023/05/01 14:52:44;;;;;;;;;;;;;;;;;;5050638;28;19921;-58
2023/05/01 14:55:10;;;;;;;;;;;;;;;;;;5051178;28;19928;-59
2023/05/01 14:57:36;;;;;;;;;;;;;;;;;;5051279;28;20303;-59
2023/05/01 15:00:04;;;;;;;;;;;;;;;;;;5050748;28;19925;-59
2023/05/01 15:02:30;;;;;;;;;;;;;;;;;;5051152;28;19925;-59
2023/05/01 15:04:56;;;;;;;;;;;;;;;;;;5051276;28;20299;-59
2023/05/01 15:07:22;;;;;;;;;;;;;;;;;;5050261;28;19920;-58
2023/05/01 15:09:48;;;;;;;;;;;;;;;;;;5051268;28;19928;-58
2023/05/01 15:12:14;;;;;;;;;;;;;;;;;;5050649;28;19928;-59
2023/05/01 15:14:40;;;;;;;;;;;;;;;;;;5050502;28;19928;-59
2023/05/01 15:17:06;;;;;;;;;;;;;;;;;;5050749;28;19927;-59
2023/05/01 15:19:32;;;;;;;;;;;;;;;;;;5050878;28;20015;-59
2023/05/01 15:21:57;;;;;;;;;;;;;;;;;;5049809;28;19982;-59
2023/05/01 15:24:23;;;;;;;;;;;;;;;;;;5050656;28;19925;-59
2023/05/01 15:26:49;;;;;;;;;;;;;;;;;;5050773;28;20326;-59
2023/05/01 15:29:15;;;;;;;;;;;;;;;;;;5048765;28;20015;-58
2023/05/01 15:31:42;;;;;;;;;;;;;;;;;;5050403;28;19921;-58
2023/05/01 15:34:08;;;;;;;;;;;;;;;;;;5050938;28;19925;-58
2023/05/01 15:36:34;;;;;;;;;;;;;;;;;;5050284;28;20429;-59
2023/05/01 15:39:00;;;;;;;;;;;;;;;;;;5050489;28;19932;-59
2023/05/01 15:41:26;;;;;;;;;;;;;;;;;;5051963;28;19970;-59
2023/05/01 15:43:52;;;;;;;;;;;;;;;;;;5054370;28;19968;-59
2023/05/01 15:46:18;;;;;;;;;;;;;;;;;;5054486;28;19925;-59
2023/05/01 15:48:45;;;;;;;;;;;;;;;;;;5053152;28;20015;-59
2023/05/01 15:51:11;;;;;;;;;;;;;;;;;;5054723;28;19928;-58
2023/05/01 15:53:37;;;;;;;;;;;;;;;;;;5054062;28;19927;-55
2023/05/01 15:56:03;;;;;;;;;;;;;;;;;;5053428;28;19924;-59
2023/05/01 15:58:29;;;;;;;;;;;;;;;;;;5054815;28;20020;-58
2023/05/01 16:00:55;;;;;;;;;;;;;;;;;;5054058;28;19928;-58
2023/05/01 16:03:21;;;;;;;;;;;;;;;;;;5052976;28;20302;-58
2023/05/01 16:05:47;;;;;;;;;;;;;;;;;;5054531;28;19942;-58
2023/05/01 16:08:13;;;;;;;;;;;;;;;;;;5052435;28;20350;-57
2023/05/01 16:10:39;;;;;;;;;;;;;;;;;;5054269;28;19921;-58
2023/05/01 16:13:05;;;;;;;;;;;;;;;;;;5054105;28;19969;-59
2023/05/01 16:15:31;;;;;;;;;;;;;;;;;;5052173;28;19925;-59
2023/05/01 16:17:57;;;;;;;;;;;;;;;;;;5054314;28;19925;-59
2023/05/01 16:20:23;;;;;;;;;;;;;;;;;;5053987;28;19925;-59
2023/05/01 16:22:50;;;;;;;;;;;;;;;;;;5053509;28;19928;-59
2023/05/01 16:25:16;;;;;;;;;;;;;;;;;;5054062;28;19920;-58
2023/05/01 16:27:46;;;;;;;;;;;;;;;;;;5053732;28;20509;-56
2023/05/01 16:30:15;;;;;;;;;;;;;;;;;;5053619;28;19921;-58
2023/05/01 16:32:41;;;;;;;;;;;;;;;;;;5053921;28;19920;-58
2023/05/01 16:35:07;;;;;;;;;;;;;;;;;;5053851;28;19925;-58
2023/05/01 16:37:33;;;;;;;;;;;;;;;;;;5053333;28;19956;-58